Time;durP1;ratioP1;P1;durP2;ratioP2;P2;SDS_P1;SDS_P2;PMS_P1;PMS_P2;Temp;Humidity;BMP_temperature;BMP_pressure;BME280_temperature;BME280_humidity;BME280_pressure;Samples;Min_cycle;Max_cycle;Signal;HPM_P1;HPM_P2
2021/08/01 00:02:22;;;;;;;15.73;14.52;;;16.90;89.50;;;;;;5042517;29;20127;-70
2021/08/01 00:04:54;;;;;;;15.63;14.43;;;16.90;89.10;;;;;;5029035;29;20052;-70
2021/08/01 00:07:26;;;;;;;16.17;14.65;;;16.90;89.70;;;;;;5032254;29;20563;-71
2021/08/01 00:09:59;;;;;;;15.85;14.50;;;16.90;89.00;;;;;;5045225;29;20075;-71
2021/08/01 00:12:31;;;;;;;15.05;13.95;;;16.90;89.30;;;;;;5044337;29;20068;-72
2021/08/01 00:15:04;;;;;;;15.68;14.38;;;16.80;89.10;;;;;;5043947;29;20048;-74
2021/08/01 00:17:37;;;;;;;15.30;14.20;;;16.80;89.00;;;;;;5045962;29;20053;-71
2021/08/01 00:20:09;;;;;;;15.15;13.95;;;16.90;88.80;;;;;;5033366;29;20116;-72
2021/08/01 00:22:41;;;;;;;15.30;13.90;;;16.90;88.80;;;;;;5043994;29;20037;-73
2021/08/01 00:25:13;;;;;;;15.02;13.77;;;16.80;88.90;;;;;;5049110;29;20040;-72
2021/08/01 00:27:45;;;;;;;14.30;13.10;;;16.90;89.20;;;;;;5045152;29;20112;-73
2021/08/01 00:30:16;;;;;;;15.73;14.35;;;16.90;89.10;;;;;;5030793;29;20064;-73
2021/08/01 00:32:48;;;;;;;14.48;13.38;;;16.90;88.80;;;;;;5045588;29;20115;-73
2021/08/01 00:35:20;;;;;;;14.75;13.65;;;16.90;89.20;;;;;;5045976;29;20045;-72
2021/08/01 00:37:52;;;;;;;14.40;13.25;;;16.80;89.60;;;;;;5027908;29;20120;-72
2021/08/01 00:40:24;;;;;;;15.57;13.98;;;16.70;90.20;;;;;;5044774;29;20052;-72
2021/08/01 00:42:56;;;;;;;15.00;13.90;;;16.70;90.00;;;;;;5044647;29;20044;-72
2021/08/01 00:45:29;;;;;;;14.05;12.95;;;16.70;89.90;;;;;;5048875;29;20048;-73
2021/08/01 00:48:01;;;;;;;14.68;13.48;;;16.70;89.90;;;;;;5047058;29;20145;-72
2021/08/01 00:50:34;;;;;;;14.98;13.77;;;16.70;90.60;;;;;;5044626;29;20041;-71
2021/08/01 00:53:08;;;;;;;15.27;13.95;;;16.70;89.90;;;;;;5037410;29;20055;-73
2021/08/01 00:55:41;;;;;;;15.73;14.45;;;16.70;89.80;;;;;;5044218;29;20448;-72
2021/08/01 00:58:14;;;;;;;15.73;14.45;;;16.80;89.90;;;;;;5045919;29;20040;-73
2021/08/01 01:01:05;;;;;;;15.60;14.45;;;16.70;89.90;;;;;;5043354;29;20045;-73
2021/08/01 01:03:50;;;;;;;15.95;14.65;;;16.70;90.10;;;;;;5048321;29;20586;-73
2021/08/01 01:06:26;;;;;;;16.27;15.00;;;16.70;90.10;;;;;;5049334;29;20519;-72
2021/08/01 01:09:06;;;;;;;16.58;15.27;;;16.60;90.50;;;;;;5032142;29;20052;-73
2021/08/01 01:12:09;;;;;;;16.50;15.30;;;16.60;90.60;;;;;;5050807;29;20045;-73
2021/08/01 01:14:47;;;;;;;17.55;16.25;;;16.60;91.50;;;;;;5049553;29;20129;-73
2021/08/01 01:17:25;;;;;;;16.40;15.20;;;16.50;91.70;;;;;;5047014;29;21680;-73
2021/08/01 01:20:35;;;;;;;16.85;15.52;;;16.50;91.50;;;;;;5049942;29;20128;-72
2021/08/01 01:23:32;;;;;;;17.40;15.95;;;16.50;92.30;;;;;;5048693;29;20041;-73
2021/08/01 01:26:46;;;;;;;16.30;15.13;;;16.40;91.60;;;;;;5048817;29;20160;-73
2021/08/01 01:29:25;;;;;;;;;;;16.30;92.00;;;;;;5048295;29;20070;-73
2021/08/01 01:32:08;;;;;;;15.65;14.55;;;16.40;91.90;;;;;;5039449;29;19924;-72
2021/08/01 01:34:48;;;;;;;15.70;14.60;;;16.30;91.60;;;;;;5038354;29;20049;-72
2021/08/01 01:37:22;;;;;;;15.70;14.60;;;16.40;91.40;;;;;;5045756;29;20045;-72
2021/08/01 01:39:59;;;;;;;15.80;14.70;;;16.40;91.40;;;;;;5054622;29;20036;-73
2021/08/01 01:42:48;;;;;;;15.40;14.30;;;16.40;91.10;;;;;;5052820;29;20494;-73
2021/08/01 01:45:28;;;;;;;15.77;14.68;;;16.40;91.10;;;;;;5037511;29;20083;-73
2021/08/01 01:48:01;;;;;;;15.00;14.00;;;16.50;91.00;;;;;;5038217;29;20104;-73
2021/08/01 01:50:35;;;;;;;15.18;14.10;;;16.50;91.30;;;;;;5036989;29;20132;-73
2021/08/01 01:53:09;;;;;;;15.73;14.63;;;16.50;91.20;;;;;;5047749;29;20401;-72
2021/08/01 01:55:42;;;;;;;16.50;15.30;;;16.40;91.10;;;;;;5037257;29;20067;-73
2021/08/01 01:58:14;;;;;;;15.55;14.45;;;16.50;91.00;;;;;;5050105;29;20542;-72
2021/08/01 02:00:46;;;;;;;15.70;14.55;;;16.50;90.80;;;;;;5043649;29;20080;-72
2021/08/01 02:03:18;;;;;;;15.82;14.73;;;16.60;90.60;;;;;;5049277;29;20616;-73
2021/08/01 02:06:09;;;;;;;16.02;14.93;;;16.60;90.60;;;;;;5044190;29;20053;-73
2021/08/01 02:08:57;;;;;;;15.13;14.02;;;16.60;90.50;;;;;;5033003;29;20804;-72
2021/08/01 02:12:02;;;;;;;15.23;14.23;;;16.60;90.50;;;;;;5032777;29;20081;-72
2021/08/01 02:14:47;;;;;;;14.20;13.20;;;16.50;90.30;;;;;;5048142;29;20072;-73
2021/08/01 02:17:27;;;;;;;14.43;13.43;;;16.40;88.30;;;;;;5039175;29;20490;-73
2021/08/01 02:20:03;;;;;;;14.63;13.63;;;16.40;88.40;;;;;;5049888;29;20044;-73
2021/08/01 02:22:37;;;;;;;14.57;13.57;;;16.40;88.30;;;;;;5033892;29;20053;-71
2021/08/01 02:25:11;;;;;;;13.80;12.90;;;16.40;87.40;;;;;;5048889;29;20145;-72
2021/08/01 02:27:44;;;;;;;13.90;13.00;;;16.30;86.40;;;;;;5038490;29;20048;-73
2021/08/01 02:30:17;;;;;;;13.68;12.77;;;16.30;86.70;;;;;;5049127;29;20049;-72
2021/08/01 02:32:50;;;;;;;13.50;12.60;;;16.30;87.40;;;;;;5051555;29;20558;-73
2021/08/01 02:35:22;;;;;;;13.15;12.23;;;16.20;83.20;;;;;;5048725;29;20057;-73
2021/08/01 02:37:57;;;;;;;14.00;12.90;;;16.20;86.00;;;;;;5049651;29;20048;-71
2021/08/01 02:40:34;;;;;;;13.20;12.30;;;16.20;86.30;;;;;;5029781;29;20844;-71
2021/08/01 02:43:12;;;;;;;13.23;12.32;;;16.20;85.50;;;;;;5024869;29;20091;-74
2021/08/01 02:45:45;;;;;;;13.00;12.10;;;16.10;85.80;;;;;;5050408;29;20499;-72
2021/08/01 02:48:17;;;;;;;13.75;12.85;;;16.10;85.80;;;;;;5050030;29;20500;-73
2021/08/01 02:50:59;;;;;;;13.88;12.98;;;16.00;85.70;;;;;;5049496;29;20523;-74
2021/08/01 02:53:37;;;;;;;13.45;12.45;;;16.00;85.90;;;;;;5035294;29;20045;-73
2021/08/01 02:56:11;;;;;;;13.90;13.00;;;16.00;85.60;;;;;;5047242;29;20522;-73
2021/08/01 02:58:45;;;;;;;13.80;12.90;;;16.00;84.50;;;;;;5037465;29;20064;-74
2021/08/01 03:01:17;;;;;;;13.32;12.43;;;16.00;84.60;;;;;;5044448;29;20048;-74
2021/08/01 03:03:52;;;;;;;13.20;12.30;;;15.90;84.80;;;;;;5038478;29;20077;-73
2021/08/01 03:06:32;;;;;;;13.32;12.43;;;15.80;83.80;;;;;;5045376;29;20138;-73
2021/08/01 03:09:05;;;;;;;12.85;11.95;;;15.80;84.40;;;;;;5031230;29;20084;-73
2021/08/01 03:11:37;;;;;;;12.90;12.00;;;15.70;84.30;;;;;;5045495;29;20037;-74
2021/08/01 03:14:13;;;;;;;12.40;11.50;;;15.70;84.00;;;;;;5047558;29;20053;-74
2021/08/01 03:16:46;;;;;;;12.60;11.70;;;15.50;84.50;;;;;;5029632;29;20048;-74
2021/08/01 03:19:18;;;;;;;12.48;11.68;;;15.50;85.60;;;;;;5048294;29;20473;-74
2021/08/01 03:21:51;;;;;;;12.60;11.70;;;15.50;84.10;;;;;;5033535;29;20618;-73
2021/08/01 03:24:30;;;;;;;12.68;11.68;;;15.60;84.60;;;;;;5018663;29;20060;-72
2021/08/01 03:27:08;;;;;;;12.95;11.95;;;15.60;84.50;;;;;;5031859;29;20128;-74
2021/08/01 03:29:41;;;;;;;12.43;11.52;;;15.60;84.20;;;;;;5046169;29;20123;-73
2021/08/01 03:32:20;;;;;;;13.05;12.15;;;15.50;84.00;;;;;;5044765;29;20172;-73
2021/08/01 03:34:56;;;;;;;12.25;11.43;;;15.50;84.30;;;;;;5033983;29;20060;-74
2021/08/01 03:37:31;;;;;;;12.13;11.32;;;15.50;84.40;;;;;;5044709;29;20053;-74
2021/08/01 03:40:22;;;;;;;12.18;11.35;;;15.50;84.60;;;;;;5045573;29;20059;-74
2021/08/01 03:42:54;;;;;;;12.40;11.50;;;15.50;84.90;;;;;;5046781;29;20037;-74
2021/08/01 03:45:26;;;;;;;11.75;10.90;;;15.50;85.10;;;;;;5047420;29;20051;-73
2021/08/01 03:47:58;;;;;;;12.50;11.60;;;15.50;85.10;;;;;;5049588;29;20044;-74
2021/08/01 03:50:30;;;;;;;12.32;11.43;;;15.50;85.30;;;;;;5045883;29;20053;-74
2021/08/01 03:53:02;;;;;;;13.02;12.13;;;15.40;85.00;;;;;;5031142;29;20067;-73
2021/08/01 03:55:34;;;;;;;12.80;11.88;;;15.40;85.50;;;;;;5046650;29;20124;-73
2021/08/01 03:58:06;;;;;;;12.75;11.85;;;15.30;85.60;;;;;;5046850;29;20471;-72
2021/08/01 04:00:37;;;;;;;12.90;11.90;;;15.20;86.40;;;;;;5047926;29;20457;-73
2021/08/01 04:03:09;;;;;;;13.25;12.32;;;15.20;86.30;;;;;;5047035;29;20048;-73
2021/08/01 04:05:41;;;;;;;12.82;11.93;;;15.20;86.20;;;;;;5044477;29;20765;-73
2021/08/01 04:08:13;;;;;;;13.20;12.07;;;15.20;86.20;;;;;;5041992;29;20059;-72
2021/08/01 04:10:45;;;;;;;13.27;12.38;;;15.30;86.20;;;;;;5032462;29;20096;-72
2021/08/01 04:13:17;;;;;;;13.30;12.40;;;15.20;86.40;;;;;;5046081;29;20158;-74
2021/08/01 04:15:49;;;;;;;13.07;12.18;;;15.20;85.80;;;;;;5047325;29;20052;-72
2021/08/01 04:18:21;;;;;;;12.70;11.80;;;15.20;85.60;;;;;;5045839;29;20109;-73
2021/08/01 04:20:53;;;;;;;13.10;12.20;;;15.20;85.60;;;;;;5045116;29;20072;-73
2021/08/01 04:23:25;;;;;;;13.15;12.25;;;15.20;85.30;;;;;;5043082;29;20051;-73
2021/08/01 04:25:57;;;;;;;13.15;12.25;;;15.20;85.70;;;;;;5043782;29;20947;-74
2021/08/01 04:28:29;;;;;;;12.80;11.90;;;15.20;86.60;;;;;;5017838;29;20048;-74
2021/08/01 04:31:01;;;;;;;13.10;12.20;;;15.20;85.90;;;;;;5031208;29;20131;-74
2021/08/01 04:33:35;;;;;;;13.32;12.32;;;15.20;85.90;;;;;;5045046;29;20109;-73
2021/08/01 04:36:07;;;;;;;12.65;11.75;;;15.20;85.90;;;;;;5042433;29;20121;-71
2021/08/01 04:38:39;;;;;;;13.02;12.13;;;15.10;86.10;;;;;;5030405;29;20507;-72
2021/08/01 04:41:11;;;;;;;12.82;11.93;;;15.10;86.20;;;;;;5044288;29;20096;-73
2021/08/01 04:43:43;;;;;;;13.05;12.02;;;15.10;86.20;;;;;;5017899;29;20531;-72
2021/08/01 04:46:14;;;;;;;12.98;11.98;;;15.10;86.20;;;;;;5047693;29;20080;-73
2021/08/01 04:48:46;;;;;;;12.73;11.82;;;15.10;86.20;;;;;;5048435;29;20044;-73
2021/08/01 04:51:18;;;;;;;12.93;12.02;;;15.10;86.10;;;;;;5046446;29;20037;-73
2021/08/01 04:53:50;;;;;;;12.93;11.93;;;15.10;86.20;;;;;;5046168;29;20507;-73
2021/08/01 04:56:22;;;;;;;12.93;11.93;;;15.20;86.50;;;;;;5043598;29;20044;-73
2021/08/01 04:58:54;;;;;;;12.85;11.95;;;15.20;86.90;;;;;;5042537;29;20507;-73
2021/08/01 05:01:26;;;;;;;12.55;11.65;;;15.20;86.50;;;;;;5046639;29;20077;-73
2021/08/01 05:03:58;;;;;;;13.10;12.20;;;15.20;86.50;;;;;;5037123;29;20037;-73
2021/08/01 05:06:30;;;;;;;12.38;11.52;;;15.30;86.80;;;;;;5045809;29;20101;-72
2021/08/01 05:09:05;;;;;;;12.45;11.45;;;15.20;86.40;;;;;;5044824;29;20059;-73
2021/08/01 05:11:37;;;;;;;12.68;11.77;;;15.20;86.20;;;;;;5045730;29;20041;-73
2021/08/01 05:14:09;;;;;;;12.35;11.45;;;15.30;86.80;;;;;;5027804;29;20053;-72
2021/08/01 05:16:42;;;;;;;12.63;11.73;;;15.30;85.90;;;;;;5045791;29;20049;-73
2021/08/01 05:19:14;;;;;;;12.00;11.20;;;15.30;86.40;;;;;;5049048;29;20061;-72
2021/08/01 05:21:46;;;;;;;12.18;11.38;;;15.40;86.40;;;;;;5044631;29;20684;-73
2021/08/01 05:24:18;;;;;;;11.73;10.85;;;15.40;86.00;;;;;;5046644;29;20848;-73
2021/08/01 05:26:50;;;;;;;12.13;11.23;;;15.40;86.10;;;;;;5044131;29;20131;-73
2021/08/01 05:29:22;;;;;;;12.00;11.10;;;15.40;85.60;;;;;;5046524;29;20104;-73
2021/08/01 05:31:55;;;;;;;11.82;10.93;;;15.40;85.80;;;;;;5048051;29;20045;-72
2021/08/01 05:34:27;;;;;;;12.20;11.30;;;15.40;86.10;;;;;;5043370;29;20396;-73
2021/08/01 05:36:59;;;;;;;11.80;11.00;;;15.50;86.00;;;;;;5032358;29;20096;-73
2021/08/01 05:39:35;;;;;;;11.70;10.80;;;15.50;85.90;;;;;;5038539;29;20049;-74
2021/08/01 05:42:07;;;;;;;11.60;10.70;;;15.50;85.40;;;;;;5041654;29;20460;-72
2021/08/01 05:44:39;;;;;;;12.07;11.27;;;15.50;85.50;;;;;;5044490;29;20043;-73
2021/08/01 05:47:14;;;;;;;12.00;11.10;;;15.40;85.10;;;;;;5044487;29;20053;-72
2021/08/01 05:49:45;;;;;;;12.38;11.55;;;15.50;85.40;;;;;;5048796;29;20572;-73
2021/08/01 05:52:17;;;;;;;12.32;11.43;;;15.50;85.30;;;;;;5048502;29;20080;-73
2021/08/01 05:54:53;;;;;;;12.15;11.25;;;15.50;85.40;;;;;;5049636;29;20096;-72
2021/08/01 05:57:25;;;;;;;11.95;11.15;;;15.50;86.00;;;;;;5048330;29;20048;-72
2021/08/01 05:59:56;;;;;;;11.55;10.75;;;15.60;85.20;;;;;;5047343;29;20236;-73
2021/08/01 06:02:28;;;;;;;11.93;11.10;;;15.60;85.30;;;;;;5049050;29;20044;-73
2021/08/01 06:05:00;;;;;;;11.38;10.57;;;15.60;85.40;;;;;;5047375;29;20053;-73
2021/08/01 06:07:32;;;;;;;12.00;11.13;;;15.60;86.20;;;;;;5044047;29;20169;-73
2021/08/01 06:10:05;;;;;;;12.10;11.20;;;15.60;85.50;;;;;;5048167;29;20064;-73
2021/08/01 06:12:36;;;;;;;11.73;10.82;;;15.60;85.40;;;;;;5049511;29;20048;-73
2021/08/01 06:15:09;;;;;;;11.63;10.82;;;15.50;85.50;;;;;;5029381;29;20101;-72
2021/08/01 06:17:42;;;;;;;11.70;10.85;;;15.50;85.20;;;;;;5048544;29;20124;-72
2021/08/01 06:20:14;;;;;;;12.10;11.20;;;15.60;85.40;;;;;;5050191;29;20132;-72
2021/08/01 06:22:46;;;;;;;11.90;11.02;;;15.60;85.80;;;;;;5050323;29;20040;-73
2021/08/01 06:25:18;;;;;;;11.73;10.93;;;15.70;86.10;;;;;;5046809;29;20568;-73
2021/08/01 06:27:49;;;;;;;11.73;10.82;;;15.70;85.80;;;;;;5047524;29;20961;-73
2021/08/01 06:30:21;;;;;;;11.88;11.00;;;15.70;85.80;;;;;;5046783;29;20579;-73
2021/08/01 06:32:53;;;;;;;11.98;11.18;;;15.60;85.40;;;;;;5051468;29;20077;-73
2021/08/01 06:35:25;;;;;;;12.82;11.93;;;15.60;84.70;;;;;;5046554;29;20072;-73
2021/08/01 06:37:57;;;;;;;11.90;11.00;;;15.60;85.00;;;;;;5048046;29;20808;-73
2021/08/01 06:40:29;;;;;;;11.80;11.00;;;15.60;84.70;;;;;;5047710;29;20105;-73
2021/08/01 06:43:01;;;;;;;12.50;11.60;;;15.60;85.50;;;;;;5049203;29;20112;-72
2021/08/01 06:45:33;;;;;;;12.48;11.50;;;15.60;85.70;;;;;;5047926;29;20132;-73
2021/08/01 06:48:06;;;;;;;12.27;11.40;;;15.60;85.80;;;;;;5050216;29;20056;-73
2021/08/01 06:50:38;;;;;;;12.65;11.75;;;15.50;86.00;;;;;;5047973;29;20119;-73
2021/08/01 06:53:10;;;;;;;12.32;11.32;;;15.60;86.30;;;;;;5046405;29;20061;-73
2021/08/01 06:55:42;;;;;;;12.38;11.48;;;15.60;86.10;;;;;;5046922;29;20521;-72
2021/08/01 06:58:18;;;;;;;12.63;11.73;;;15.60;85.90;;;;;;5047258;29;20109;-75
2021/08/01 07:00:51;;;;;;;12.45;11.55;;;15.70;85.90;;;;;;5043078;29;20041;-73
2021/08/01 07:03:26;;;;;;;13.05;12.15;;;15.60;85.70;;;;;;5050001;29;20120;-73
2021/08/01 07:05:58;;;;;;;12.70;11.80;;;15.60;85.40;;;;;;5047856;29;20056;-73
2021/08/01 07:08:30;;;;;;;13.02;12.02;;;15.60;85.30;;;;;;5046831;29;20075;-72
2021/08/01 07:11:02;;;;;;;12.63;11.73;;;15.70;85.40;;;;;;5042885;29;20135;-74
2021/08/01 07:13:35;;;;;;;13.15;12.23;;;15.60;85.80;;;;;;5048156;29;20135;-72
2021/08/01 07:16:07;;;;;;;12.77;11.88;;;15.60;85.80;;;;;;5045012;29;20076;-74
2021/08/01 07:18:39;;;;;;;12.85;11.95;;;15.60;86.10;;;;;;5045287;29;20045;-73
2021/08/01 07:21:14;;;;;;;12.82;11.93;;;15.70;85.80;;;;;;5048544;29;20053;-74
2021/08/01 07:23:46;;;;;;;12.63;11.73;;;15.60;86.00;;;;;;5028656;29;20064;-73
2021/08/01 07:26:18;;;;;;;13.18;12.18;;;15.70;86.20;;;;;;5035980;29;20053;-73
2021/08/01 07:28:50;;;;;;;12.75;11.80;;;15.60;86.00;;;;;;5048114;29;20052;-72
2021/08/01 07:31:22;;;;;;;13.15;12.20;;;15.60;86.20;;;;;;5048399;29;20049;-73
2021/08/01 07:33:54;;;;;;;12.75;11.85;;;15.60;86.10;;;;;;5047732;29;20075;-73
2021/08/01 07:36:27;;;;;;;13.05;12.07;;;15.60;86.40;;;;;;5047708;29;20060;-72
2021/08/01 07:38:59;;;;;;;12.57;11.68;;;15.60;86.40;;;;;;5049992;29;20048;-72
2021/08/01 07:41:33;;;;;;;12.93;12.02;;;15.70;86.50;;;;;;5045831;29;20068;-73
2021/08/01 07:44:05;;;;;;;13.13;12.13;;;15.60;86.20;;;;;;5047408;29;20078;-73
2021/08/01 07:46:37;;;;;;;13.07;12.18;;;15.60;86.20;;;;;;5047435;29;20125;-73
2021/08/01 07:49:09;;;;;;;13.15;12.25;;;15.70;85.80;;;;;;5048651;29;20076;-73
2021/08/01 07:51:40;;;;;;;13.07;12.07;;;15.70;86.00;;;;;;5046252;29;20041;-73
2021/08/01 07:54:12;;;;;;;13.05;12.15;;;15.70;85.80;;;;;;5028626;29;20076;-73
2021/08/01 07:56:44;;;;;;;13.13;12.15;;;15.70;85.80;;;;;;5048030;29;20547;-73
2021/08/01 07:59:16;;;;;;;12.73;11.82;;;15.70;85.70;;;;;;5033626;29;20460;-72
2021/08/01 08:01:48;;;;;;;12.85;11.95;;;15.70;86.00;;;;;;5052755;29;20067;-73
2021/08/01 08:04:20;;;;;;;12.95;12.05;;;15.80;85.90;;;;;;5047647;29;20048;-72
2021/08/01 08:06:52;;;;;;;12.20;11.40;;;15.80;86.10;;;;;;5035713;29;20041;-72
2021/08/01 08:09:26;;;;;;;12.50;11.60;;;15.80;86.10;;;;;;5049552;29;20056;-72
2021/08/01 08:11:58;;;;;;;12.90;12.00;;;15.80;85.70;;;;;;5045208;29;20056;-73
2021/08/01 08:14:30;;;;;;;13.25;12.35;;;15.80;85.80;;;;;;5046551;29;20533;-73
2021/08/01 08:17:02;;;;;;;13.38;12.48;;;15.80;85.40;;;;;;5048114;29;20056;-73
2021/08/01 08:19:34;;;;;;;13.23;12.23;;;15.90;85.00;;;;;;5044245;29;20108;-73
2021/08/01 08:22:07;;;;;;;12.82;11.93;;;15.90;85.20;;;;;;5044800;29;20097;-73
2021/08/01 08:24:39;;;;;;;13.02;12.13;;;15.90;85.00;;;;;;5043902;29;20041;-74
2021/08/01 08:27:11;;;;;;;13.30;12.30;;;16.00;85.20;;;;;;5038431;29;20136;-74
2021/08/01 08:29:43;;;;;;;13.32;12.32;;;16.00;84.90;;;;;;5047811;29;20044;-73
2021/08/01 08:32:15;;;;;;;13.15;12.25;;;16.00;84.50;;;;;;5047326;29;20123;-74
2021/08/01 08:34:47;;;;;;;12.93;12.02;;;16.00;84.70;;;;;;5045266;29;20097;-73
2021/08/01 08:37:19;;;;;;;13.02;12.13;;;16.10;83.90;;;;;;5045612;29;20110;-72
2021/08/01 08:39:51;;;;;;;13.48;12.57;;;16.10;84.50;;;;;;5044976;29;20041;-74
2021/08/01 08:42:25;;;;;;;12.98;12.07;;;16.20;84.10;;;;;;5045928;29;20120;-71
2021/08/01 08:44:56;;;;;;;13.52;12.52;;;16.20;84.40;;;;;;5049313;29;20048;-73
2021/08/01 08:47:30;;;;;;;13.73;12.73;;;16.30;84.70;;;;;;5048076;29;20100;-73
2021/08/01 08:50:03;;;;;;;13.88;12.90;;;16.40;85.40;;;;;;5044817;29;20049;-72
2021/08/01 08:52:36;;;;;;;13.55;12.55;;;16.50;84.10;;;;;;5046107;29;20127;-74
2021/08/01 08:55:10;;;;;;;13.57;12.60;;;16.70;84.10;;;;;;5047966;29;20049;-73
2021/08/01 08:57:46;;;;;;;13.85;12.75;;;16.80;84.00;;;;;;5045891;29;20436;-73
2021/08/01 09:00:19;;;;;;;14.70;13.70;;;16.90;84.50;;;;;;5048719;29;20101;-73
2021/08/01 09:02:51;;;;;;;14.35;13.35;;;17.10;83.90;;;;;;5036716;29;20487;-74
2021/08/01 09:05:23;;;;;;;14.80;13.80;;;17.10;84.90;;;;;;5032230;29;20045;-75
2021/08/01 09:07:55;;;;;;;14.23;13.23;;;17.30;84.20;;;;;;5043078;29;20049;-72
2021/08/01 09:10:30;;;;;;;14.07;12.98;;;17.40;83.30;;;;;;5044042;29;20065;-74
2021/08/01 09:13:02;;;;;;;14.70;13.60;;;17.50;84.20;;;;;;5046247;29;20053;-74
2021/08/01 09:15:34;;;;;;;15.23;14.02;;;17.60;84.00;;;;;;5043140;29;20713;-75
2021/08/01 09:18:12;;;;;;;14.15;13.05;;;17.70;83.80;;;;;;5044280;29;20049;-74
2021/08/01 09:20:51;;;;;;;13.55;12.65;;;17.80;83.70;;;;;;5043837;29;20772;-74
2021/08/01 09:23:23;;;;;;;13.93;12.93;;;17.80;83.60;;;;;;5046936;29;20064;-75
2021/08/01 09:26:00;;;;;;;13.85;12.85;;;17.80;82.60;;;;;;5048843;29;20176;-75
2021/08/01 09:28:32;;;;;;;13.63;12.65;;;17.80;82.50;;;;;;5048642;29;20057;-75
2021/08/01 09:31:06;;;;;;;13.65;12.75;;;17.80;81.90;;;;;;5047030;29;20060;-73
2021/08/01 09:33:42;;;;;;;13.70;12.77;;;17.80;82.40;;;;;;5048861;29;20044;-75
2021/08/01 09:36:15;;;;;;;13.18;12.27;;;17.80;82.10;;;;;;5048674;29;20476;-74
2021/08/01 09:38:47;;;;;;;13.35;12.45;;;17.80;82.30;;;;;;5044842;29;20052;-75
2021/08/01 09:41:41;;;;;;;13.43;12.52;;;17.70;82.20;;;;;;5050588;29;20477;-74
2021/08/01 09:44:18;;;;;;;13.15;12.25;;;17.60;82.60;;;;;;5052526;29;20109;-74
2021/08/01 09:46:55;;;;;;;13.95;12.93;;;17.60;82.40;;;;;;5051712;29;20063;-74
2021/08/01 09:49:31;;;;;;;12.77;11.88;;;17.60;82.90;;;;;;5051732;29;20120;-74
2021/08/01 09:52:04;;;;;;;12.40;11.50;;;17.60;83.70;;;;;;5046847;29;20516;-74
2021/08/01 09:54:44;;;;;;;13.00;12.10;;;17.50;83.20;;;;;;5052018;29;20052;-74
2021/08/01 09:57:18;;;;;;;13.07;12.18;;;17.50;82.70;;;;;;5030036;29;20440;-75
2021/08/01 10:00:08;;;;;;;13.80;12.70;;;17.40;82.50;;;;;;5054155;29;20609;-75
2021/08/01 10:02:40;;;;;;;13.95;12.90;;;17.20;82.20;;;;;;5047883;29;20139;-74
2021/08/01 10:05:15;;;;;;;14.18;13.10;;;17.00;78.80;;;;;;5050498;29;20056;-73
2021/08/01 10:07:51;;;;;;;13.50;12.50;;;16.80;81.00;;;;;;5050046;29;20073;-73
2021/08/01 10:10:25;;;;;;;13.00;12.00;;;16.70;81.20;;;;;;5047744;29;20037;-74
2021/08/01 10:12:57;;;;;;;13.95;12.85;;;16.70;81.20;;;;;;5035303;29;20138;-74
2021/08/01 10:15:31;;;;;;;12.90;11.93;;;16.60;81.80;;;;;;5046419;29;20059;-74
2021/08/01 10:18:03;;;;;;;13.27;12.18;;;16.60;81.70;;;;;;5046845;29;20143;-74
2021/08/01 10:20:36;;;;;;;13.85;12.75;;;16.70;82.20;;;;;;5050483;29;20124;-73
2021/08/01 10:23:08;;;;;;;13.55;12.45;;;16.60;82.10;;;;;;5048287;29;20396;-73
2021/08/01 10:25:42;;;;;;;13.38;12.38;;;16.60;82.20;;;;;;5050110;29;20092;-73
2021/08/01 10:28:20;;;;;;;13.15;12.13;;;16.60;81.90;;;;;;5049278;29;20060;-74
2021/08/01 10:30:57;;;;;;;12.60;11.70;;;16.60;81.60;;;;;;5047594;29;20105;-74
2021/08/01 10:33:38;;;;;;;13.23;12.23;;;16.60;81.50;;;;;;5047446;29;20127;-74
2021/08/01 10:36:11;;;;;;;13.10;12.10;;;16.50;81.60;;;;;;5034607;29;20165;-74
2021/08/01 10:38:44;;;;;;;12.88;11.98;;;16.50;81.50;;;;;;5050552;29;20739;-74
2021/08/01 10:41:17;;;;;;;12.73;11.80;;;16.50;82.10;;;;;;5049524;29;20093;-74
2021/08/01 10:43:50;;;;;;;13.32;12.32;;;16.50;82.30;;;;;;5048767;29;20048;-74
2021/08/01 10:46:22;;;;;;;12.38;11.48;;;16.60;82.30;;;;;;5039237;29;20040;-74
2021/08/01 10:48:58;;;;;;;12.98;12.07;;;16.60;81.70;;;;;;5047111;29;20140;-73
2021/08/01 10:51:31;;;;;;;12.75;11.77;;;16.60;81.90;;;;;;5049306;29;20048;-73
2021/08/01 10:54:21;;;;;;;12.95;11.95;;;16.60;81.50;;;;;;5044660;29;20119;-74
2021/08/01 10:57:14;;;;;;;12.95;11.95;;;16.60;81.60;;;;;;5053110;29;20675;-74
2021/08/01 10:59:46;;;;;;;12.45;11.55;;;16.60;81.50;;;;;;5046572;29;20043;-74
2021/08/01 11:02:22;;;;;;;13.32;12.32;;;16.60;81.30;;;;;;5045926;29;20041;-74
2021/08/01 11:04:55;;;;;;;13.10;12.10;;;16.60;81.30;;;;;;5035879;29;20045;-73
2021/08/01 11:07:27;;;;;;;13.25;12.23;;;16.70;80.90;;;;;;5048707;29;20789;-73
2021/08/01 11:10:08;;;;;;;12.73;11.82;;;16.70;81.10;;;;;;5048558;29;20068;-73
2021/08/01 11:12:41;;;;;;;13.20;12.00;;;16.70;81.40;;;;;;5049156;29;20076;-74
2021/08/01 11:15:15;;;;;;;12.65;11.65;;;16.70;81.20;;;;;;5047884;29;20049;-74
2021/08/01 11:17:48;;;;;;;12.80;11.80;;;16.70;80.80;;;;;;5048154;29;20127;-74
2021/08/01 11:20:21;;;;;;;12.18;11.27;;;16.70;80.80;;;;;;5047674;29;20167;-74
2021/08/01 11:22:53;;;;;;;12.82;11.82;;;16.70;80.50;;;;;;5048127;29;20093;-73
2021/08/01 11:25:33;;;;;;;11.85;10.95;;;16.70;81.10;;;;;;5035862;29;20511;-74
2021/08/01 11:28:11;;;;;;;12.10;11.20;;;16.70;81.30;;;;;;5049104;29;20654;-74
2021/08/01 11:30:58;;;;;;;12.30;11.30;;;16.80;80.60;;;;;;5036710;29;20061;-74
2021/08/01 11:33:36;;;;;;;12.43;11.50;;;16.90;79.80;;;;;;5045718;29;20049;-73
2021/08/01 11:36:15;;;;;;;12.20;11.30;;;16.90;79.50;;;;;;5044404;29;20119;-74
2021/08/01 11:38:54;;;;;;;11.93;11.02;;;16.90;79.60;;;;;;5048466;29;20049;-74
2021/08/01 11:41:26;;;;;;;11.82;10.93;;;16.90;79.50;;;;;;5048057;29;20101;-73
2021/08/01 11:44:22;;;;;;;12.48;11.50;;;16.90;78.90;;;;;;5046535;29;20420;-73
2021/08/01 11:47:10;;;;;;;12.15;11.25;;;17.00;78.80;;;;;;5050482;29;20474;-72
2021/08/01 11:49:42;;;;;;;12.50;11.45;;;17.10;79.70;;;;;;5047637;29;20585;-73
2021/08/01 11:52:42;;;;;;;11.85;10.95;;;17.10;79.90;;;;;;5047504;29;20603;-69
2021/08/01 11:55:20;;;;;;;12.13;11.23;;;17.10;78.70;;;;;;5047108;29;20049;-69
2021/08/01 11:57:52;;;;;;;12.15;11.25;;;17.10;78.60;;;;;;5050539;29;20515;-69
2021/08/01 12:00:24;;;;;;;12.30;11.40;;;17.10;77.20;;;;;;5039047;29;20120;-69
2021/08/01 12:02:58;;;;;;;11.85;10.85;;;17.10;78.90;;;;;;5049846;29;20048;-70
2021/08/01 12:05:46;;;;;;;12.00;11.05;;;17.20;78.00;;;;;;5047294;29;20052;-70
2021/08/01 12:08:36;;;;;;;11.80;10.90;;;17.20;77.80;;;;;;5038426;29;20040;-70
2021/08/01 12:11:10;;;;;;;11.57;10.68;;;17.10;77.70;;;;;;5043556;29;20052;-70
2021/08/01 12:14:02;;;;;;;11.85;10.95;;;17.10;77.50;;;;;;5035169;29;20164;-70
2021/08/01 12:16:34;;;;;;;11.45;10.65;;;17.10;78.40;;;;;;5029448;29;20056;-70
2021/08/01 12:19:13;;;;;;;11.63;10.82;;;17.20;78.20;;;;;;5048710;29;20503;-71
2021/08/01 12:21:46;;;;;;;12.30;11.40;;;17.20;78.20;;;;;;5044751;29;20057;-70
2021/08/01 12:24:31;;;;;;;11.35;10.52;;;17.20;78.40;;;;;;5047547;29;20036;-71
2021/08/01 12:27:19;;;;;;;12.18;11.23;;;17.20;79.70;;;;;;5046580;29;20776;-70
2021/08/01 12:29:53;;;;;;;11.63;10.77;;;17.30;78.60;;;;;;5047822;29;20085;-70
2021/08/01 12:32:42;;;;;;;11.48;10.57;;;17.30;78.80;;;;;;5046733;29;20515;-70
2021/08/01 12:35:19;;;;;;;11.40;10.50;;;17.30;78.40;;;;;;5044110;29;20132;-70
2021/08/01 12:38:00;;;;;;;11.77;10.88;;;17.20;77.80;;;;;;5044954;29;20609;-70
2021/08/01 12:40:33;;;;;;;11.82;10.93;;;17.30;78.50;;;;;;5045052;29;20044;-71
2021/08/01 12:43:14;;;;;;;11.73;10.90;;;17.30;78.40;;;;;;5047823;29;20045;-71
2021/08/01 12:45:47;;;;;;;12.02;11.13;;;17.30;78.20;;;;;;5048247;29;20507;-70
2021/08/01 12:48:19;;;;;;;11.93;11.10;;;17.30;78.70;;;;;;5047511;29;20119;-70
2021/08/01 12:50:53;;;;;;;11.50;10.63;;;17.30;78.10;;;;;;5046512;29;20067;-70
2021/08/01 12:53:27;;;;;;;11.73;10.82;;;17.30;77.10;;;;;;5034621;29;20558;-71
2021/08/01 12:56:02;;;;;;;12.00;11.10;;;17.20;77.60;;;;;;5046324;29;20084;-70
2021/08/01 12:58:35;;;;;;;12.40;11.50;;;17.30;78.50;;;;;;5049777;29;20049;-70
2021/08/01 13:01:10;;;;;;;11.82;10.93;;;17.30;78.20;;;;;;5048274;29;20048;-71
2021/08/01 13:03:44;;;;;;;12.80;11.82;;;17.30;78.90;;;;;;5049951;29;20075;-71
2021/08/01 13:06:26;;;;;;;11.65;10.75;;;17.40;79.10;;;;;;5049414;29;20733;-71
2021/08/01 13:09:03;;;;;;;12.30;11.40;;;17.40;78.50;;;;;;5050056;29;20075;-71